sensor_id;sensor_type;location;lat;lon;timestamp;pressure;altitude;pressure_sealevel;temperature;humidity
83128;BME280;73148;50.988;11.034;2023-10-08T00:00:22;99558.03;;;21.50;55.68
83128;BME280;73148;50.988;11.034;2023-10-08T00:03:05;99551.94;;;21.50;55.56
83128;BME280;73148;50.988;11.034;2023-10-08T00:05:35;99551.06;;;21.49;55.46
83128;BME280;73148;50.988;11.034;2023-10-08T00:08:01;99558.97;;;21.49;55.34
83128;BME280;73148;50.988;11.034;2023-10-08T00:10:27;99553.63;;;21.51;55.23
83128;BME280;73148;50.988;11.034;2023-10-08T00:12:52;99558.03;;;21.50;55.57
83128;BME280;73148;50.988;11.034;2023-10-08T00:15:18;99558.03;;;21.50;55.36
83128;BME280;73148;50.988;11.034;2023-10-08T00:17:43;99558.00;;;21.52;55.26
83128;BME280;73148;50.988;11.034;2023-10-08T00:20:12;99554.47;;;21.51;55.33
83128;BME280;73148;50.988;11.034;2023-10-08T00:22:50;99552.66;;;21.53;55.36
83128;BME280;73148;50.988;11.034;2023-10-08T00:25:19;99550.06;;;21.52;55.19
83128;BME280;73148;50.988;11.034;2023-10-08T00:27:45;99535.69;;;21.39;55.62
83128;BME280;73148;50.988;11.034;2023-10-08T00:30:12;99539.69;;;21.47;55.34
83128;BME280;73148;50.988;11.034;2023-10-08T00:32:42;99553.59;;;21.52;55.36
83128;BME280;73148;50.988;11.034;2023-10-08T00:35:09;99553.59;;;21.52;55.45
83128;BME280;73148;50.988;11.034;2023-10-08T00:37:40;99545.72;;;21.51;55.48
83128;BME280;73148;50.988;11.034;2023-10-08T00:40:07;99554.56;;;21.50;55.33
83128;BME280;73148;50.988;11.034;2023-10-08T00:42:46;99551.00;;;21.51;55.50
83128;BME280;73148;50.988;11.034;2023-10-08T00:45:12;99546.66;;;21.50;55.29
83128;BME280;73148;50.988;11.034;2023-10-08T00:47:40;99554.47;;;21.51;55.37
83128;BME280;73148;50.988;11.034;2023-10-08T00:50:09;99546.66;;;21.50;55.26
83128;BME280;73148;50.988;11.034;2023-10-08T00:52:35;99545.78;;;21.49;55.53
83128;BME280;73148;50.988;11.034;2023-10-08T00:55:12;99554.47;;;21.51;55.56
83128;BME280;73148;50.988;11.034;2023-10-08T00:57:47;99548.44;;;21.49;55.50
83128;BME280;73148;50.988;11.034;2023-10-08T01:00:14;99556.28;;;21.51;55.56
83128;BME280;73148;50.988;11.034;2023-10-08T01:02:47;99550.13;;;21.50;55.69
83128;BME280;73148;50.988;11.034;2023-10-08T01:05:15;99554.75;;;21.45;55.64
83128;BME280;73148;50.988;11.034;2023-10-08T01:07:48;99543.66;;;21.37;55.55
83128;BME280;73148;50.988;11.034;2023-10-08T01:10:17;99568.59;;;21.50;55.48
83128;BME280;73148;50.988;11.034;2023-10-08T01:12:46;99566.00;;;21.49;55.62
83128;BME280;73148;50.988;11.034;2023-10-08T01:15:28;99566.00;;;21.49;55.63
83128;BME280;73148;50.988;11.034;2023-10-08T01:17:54;99563.38;;;21.49;55.51
83128;BME280;73148;50.988;11.034;2023-10-08T01:20:26;99581.00;;;21.48;55.54
83128;BME280;73148;50.988;11.034;2023-10-08T01:23:10;99564.31;;;21.48;55.51
83128;BME280;73148;50.988;11.034;2023-10-08T01:25:39;99564.31;;;21.48;55.70
83128;BME280;73148;50.988;11.034;2023-10-08T01:28:06;99566.88;;;21.49;55.62
83128;BME280;73148;50.988;11.034;2023-10-08T01:30:40;99536.06;;;21.30;55.43
83128;BME280;73148;50.988;11.034;2023-10-08T01:33:11;99566.88;;;21.49;55.64
83128;BME280;73148;50.988;11.034;2023-10-08T01:35:39;99572.22;;;21.48;55.57
83128;BME280;73148;50.988;11.034;2023-10-08T01:38:05;99569.69;;;21.45;55.56
83128;BME280;73148;50.988;11.034;2023-10-08T01:40:33;99574.91;;;21.46;55.66
83128;BME280;73148;50.988;11.034;2023-10-08T01:42:58;99574.91;;;21.46;55.81
83128;BME280;73148;50.988;11.034;2023-10-08T01:45:29;99574.06;;;21.46;55.74
83128;BME280;73148;50.988;11.034;2023-10-08T01:47:55;99567.88;;;21.47;55.72
83128;BME280;73148;50.988;11.034;2023-10-08T01:50:22;99580.19;;;21.46;55.78
83128;BME280;73148;50.988;11.034;2023-10-08T01:52:48;99565.28;;;21.45;55.75
83128;BME280;73148;50.988;11.034;2023-10-08T01:55:13;99563.53;;;21.46;55.79
83128;BME280;73148;50.988;11.034;2023-10-08T01:57:45;99551.22;;;21.45;55.88
83128;BME280;73148;50.988;11.034;2023-10-08T02:00:12;99571.44;;;21.46;55.84
83128;BME280;73148;50.988;11.034;2023-10-08T02:02:39;99574.06;;;21.46;55.83
83128;BME280;73148;50.988;11.034;2023-10-08T02:05:06;99560.88;;;21.46;55.73
83128;BME280;73148;50.988;11.034;2023-10-08T02:07:32;99573.97;;;21.47;55.72
83128;BME280;73148;50.988;11.034;2023-10-08T02:09:57;99576.72;;;21.46;55.64
83128;BME280;73148;50.988;11.034;2023-10-08T02:12:22;99563.53;;;21.46;55.85
83128;BME280;73148;50.988;11.034;2023-10-08T02:14:49;99566.28;;;21.43;55.92
83128;BME280;73148;50.988;11.034;2023-10-08T02:17:14;99576.72;;;21.46;55.73
83128;BME280;73148;50.988;11.034;2023-10-08T02:19:40;99570.56;;;21.45;55.74
83128;BME280;73148;50.988;11.034;2023-10-08T02:22:07;99567.97;;;21.44;55.92
83128;BME280;73148;50.988;11.034;2023-10-08T02:24:35;99590.78;;;21.45;55.73
83128;BME280;73148;50.988;11.034;2023-10-08T02:27:00;99603.06;;;21.46;55.91
83128;BME280;73148;50.988;11.034;2023-10-08T02:29:28;99596.94;;;21.45;55.80
83128;BME280;73148;50.988;11.034;2023-10-08T02:31:56;99598.69;;;21.45;55.97
83128;BME280;73148;50.988;11.034;2023-10-08T02:34:22;99603.06;;;21.46;56.08
83128;BME280;73148;50.988;11.034;2023-10-08T02:36:47;99599.63;;;21.44;55.82
83128;BME280;73148;50.988;11.034;2023-10-08T02:39:13;99609.25;;;21.45;55.97
83128;BME280;73148;50.988;11.034;2023-10-08T02:41:52;99591.75;;;21.42;56.11
83128;BME280;73148;50.988;11.034;2023-10-08T02:44:19;99598.69;;;21.45;55.96
83128;BME280;73148;50.988;11.034;2023-10-08T02:46:47;99606.59;;;21.45;56.17
83128;BME280;73148;50.988;11.034;2023-10-08T02:49:14;99590.63;;;21.26;56.02
83128;BME280;73148;50.988;11.034;2023-10-08T02:51:45;99621.59;;;21.44;56.17
83128;BME280;73148;50.988;11.034;2023-10-08T02:54:11;99625.97;;;21.44;56.22
83128;BME280;73148;50.988;11.034;2023-10-08T02:56:49;99626.84;;;21.44;56.19
83128;BME280;73148;50.988;11.034;2023-10-08T02:59:17;99592.19;;;21.32;56.19
83128;BME280;73148;50.988;11.034;2023-10-08T03:01:43;99614.50;;;21.45;56.20
83128;BME280;73148;50.988;11.034;2023-10-08T03:04:09;99618.00;;;21.45;56.29
83128;BME280;73148;50.988;11.034;2023-10-08T03:06:46;99626.84;;;21.44;56.14
83128;BME280;73148;50.988;11.034;2023-10-08T03:09:14;99619.84;;;21.43;56.27
83128;BME280;73148;50.988;11.034;2023-10-08T03:11:40;99624.28;;;21.43;56.34
83128;BME280;73148;50.988;11.034;2023-10-08T03:14:12;99635.66;;;21.43;56.21
83128;BME280;73148;50.988;11.034;2023-10-08T03:16:40;99643.56;;;21.43;56.29
83128;BME280;73148;50.988;11.034;2023-10-08T03:19:06;99637.00;;;21.32;56.27
83128;BME280;73148;50.988;11.034;2023-10-08T03:21:31;99667.28;;;21.43;56.31
83128;BME280;73148;50.988;11.034;2023-10-08T03:24:04;99667.25;;;21.45;56.29
83128;BME280;73148;50.988;11.034;2023-10-08T03:26:54;99670.75;;;21.45;56.41
83128;BME280;73148;50.988;11.034;2023-10-08T03:29:30;99666.41;;;21.44;56.28
83128;BME280;73148;50.988;11.034;2023-10-08T03:31:56;99662.03;;;21.43;56.29
83128;BME280;73148;50.988;11.034;2023-10-08T03:34:21;99648.84;;;21.43;56.34
83128;BME280;73148;50.988;11.034;2023-10-08T03:36:52;99646.19;;;21.43;56.52
83128;BME280;73148;50.988;11.034;2023-10-08T03:39:26;99644.50;;;21.42;56.50
83128;BME280;73148;50.988;11.034;2023-10-08T03:42:11;99640.94;;;21.43;56.43
83128;BME280;73148;50.988;11.034;2023-10-08T03:44:45;99627.84;;;21.42;56.42
83128;BME280;73148;50.988;11.034;2023-10-08T03:47:16;99626.03;;;21.42;56.60
83128;BME280;73148;50.988;11.034;2023-10-08T03:49:43;99615.50;;;21.42;56.45
83128;BME280;73148;50.988;11.034;2023-10-08T03:52:11;99614.09;;;21.34;56.48
83128;BME280;73148;50.988;11.034;2023-10-08T03:54:39;99618.06;;;21.44;56.60
83128;BME280;73148;50.988;11.034;2023-10-08T03:57:13;99614.56;;;21.43;56.62
83128;BME280;73148;50.988;11.034;2023-10-08T03:59:44;99604.09;;;21.42;56.62
83128;BME280;73148;50.988;11.034;2023-10-08T04:02:13;99614.56;;;21.43;56.61
83128;BME280;73148;50.988;11.034;2023-10-08T04:04:39;99613.78;;;21.41;56.86
83128;BME280;73148;50.988;11.034;2023-10-08T04:07:15;99596.31;;;21.39;56.74
83128;BME280;73148;50.988;11.034;2023-10-08T04:09:51;99633.03;;;21.43;56.73
83128;BME280;73148;50.988;11.034;2023-10-08T04:12:30;99660.31;;;21.42;56.83
83128;BME280;73148;50.988;11.034;2023-10-08T04:14:59;99669.09;;;21.43;56.89
83128;BME280;73148;50.988;11.034;2023-10-08T04:17:25;99681.53;;;21.39;57.86
83128;BME280;73148;50.988;11.034;2023-10-08T04:19:50;99640.25;;;21.38;57.20
83128;BME280;73148;50.988;11.034;2023-10-08T04:22:16;99644.69;;;21.38;57.18
83128;BME280;73148;50.988;11.034;2023-10-08T04:24:43;99659.69;;;21.36;57.15
83128;BME280;73148;50.988;11.034;2023-10-08T04:27:10;99677.34;;;21.34;57.41
83128;BME280;73148;50.988;11.034;2023-10-08T04:29:36;99655.41;;;21.33;57.02
83128;BME280;73148;50.988;11.034;2023-10-08T04:32:03;99652.88;;;21.30;57.10
83128;BME280;73148;50.988;11.034;2023-10-08T04:34:37;99650.47;;;21.24;56.99
83128;BME280;73148;50.988;11.034;2023-10-08T04:37:03;99669.66;;;21.28;57.14
83128;BME280;73148;50.988;11.034;2023-10-08T04:39:37;99670.63;;;21.25;57.11
83128;BME280;73148;50.988;11.034;2023-10-08T04:42:04;99675.13;;;21.23;57.05
83128;BME280;73148;50.988;11.034;2023-10-08T04:44:39;99690.13;;;21.21;57.28
83128;BME280;73148;50.988;11.034;2023-10-08T04:47:05;99713.00;;;21.21;57.18
83128;BME280;73148;50.988;11.034;2023-10-08T04:49:32;99707.88;;;21.16;57.11
83128;BME280;73148;50.988;11.034;2023-10-08T04:52:01;99698.50;;;21.08;57.08
83128;BME280;73148;50.988;11.034;2023-10-08T04:54:30;99728.09;;;21.16;56.83
83128;BME280;73148;50.988;11.034;2023-10-08T04:56:57;99732.56;;;21.14;57.01
83128;BME280;73148;50.988;11.034;2023-10-08T04:59:24;99755.41;;;21.13;56.75
83128;BME280;73148;50.988;11.034;2023-10-08T05:01:54;99752.91;;;21.10;56.69
83128;BME280;73148;50.988;11.034;2023-10-08T05:04:45;99753.81;;;21.09;56.95
83128;BME280;73148;50.988;11.034;2023-10-08T05:07:21;99756.47;;;21.08;56.75
83128;BME280;73148;50.988;11.034;2023-10-08T05:09:47;99762.69;;;21.07;56.68
83128;BME280;73148;50.988;11.034;2023-10-08T05:12:18;99760.13;;;21.04;56.81
83128;BME280;73148;50.988;11.034;2023-10-08T05:15:00;99767.22;;;21.03;56.89
83128;BME280;73148;50.988;11.034;2023-10-08T05:17:39;99790.03;;;21.03;56.65
83128;BME280;73148;50.988;11.034;2023-10-08T05:20:16;99794.53;;;21.01;56.50
83128;BME280;73148;50.988;11.034;2023-10-08T05:22:55;99795.44;;;21.00;56.87
83128;BME280;73148;50.988;11.034;2023-10-08T05:25:31;99795.50;;;20.98;56.53
83128;BME280;73148;50.988;11.034;2023-10-08T05:28:19;99794.63;;;20.98;56.66
83128;BME280;73148;50.988;11.034;2023-10-08T05:30:49;99803.44;;;20.97;56.60
83128;BME280;73148;50.988;11.034;2023-10-08T05:33:35;99815.78;;;20.95;56.54
83128;BME280;73148;50.988;11.034;2023-10-08T05:36:18;99808.75;;;20.95;56.48
83128;BME280;73148;50.988;11.034;2023-10-08T05:38:53;99823.69;;;20.95;56.62
83128;BME280;73148;50.988;11.034;2023-10-08T05:41:44;99835.19;;;20.92;56.64
83128;BME280;73148;50.988;11.034;2023-10-08T05:44:38;99836.06;;;20.93;56.77
83128;BME280;73148;50.988;11.034;2023-10-08T05:47:04;99841.38;;;20.91;56.50
83128;BME280;73148;50.988;11.034;2023-10-08T05:49:50;99858.06;;;20.90;56.83
83128;BME280;73148;50.988;11.034;2023-10-08T05:52:34;99847.59;;;20.89;56.81
83128;BME280;73148;50.988;11.034;2023-10-08T05:55:15;99837.41;;;20.78;56.93
83128;BME280;73148;50.988;11.034;2023-10-08T05:57:50;99855.53;;;20.87;56.61
83128;BME280;73148;50.988;11.034;2023-10-08T06:00:18;99857.41;;;20.84;56.92
83128;BME280;73148;50.988;11.034;2023-10-08T06:03:04;99865.28;;;20.85;56.86
83128;BME280;73148;50.988;11.034;2023-10-08T06:05:37;99858.25;;;20.84;56.77
83128;BME280;73148;50.988;11.034;2023-10-08T06:08:11;99857.47;;;20.82;56.78
83128;BME280;73148;50.988;11.034;2023-10-08T06:10:38;99866.28;;;20.81;56.65
83128;BME280;73148;50.988;11.034;2023-10-08T06:13:06;99858.44;;;20.80;56.89
83128;BME280;73148;50.988;11.034;2023-10-08T06:15:39;99872.44;;;20.80;56.99
83128;BME280;73148;50.988;11.034;2023-10-08T06:18:14;99865.47;;;20.79;56.83
83128;BME280;73148;50.988;11.034;2023-10-08T06:20:42;99858.47;;;20.78;56.91
83128;BME280;73148;50.988;11.034;2023-10-08T06:23:10;99873.44;;;20.76;56.83
83128;BME280;73148;50.988;11.034;2023-10-08T06:25:37;99866.47;;;20.75;57.06
83128;BME280;73148;50.988;11.034;2023-10-08T06:28:13;99830.13;;;20.60;57.02
83128;BME280;73148;50.988;11.034;2023-10-08T06:30:41;99886.63;;;20.76;56.93
83128;BME280;73148;50.988;11.034;2023-10-08T06:33:06;99883.97;;;20.76;56.78
83128;BME280;73148;50.988;11.034;2023-10-08T06:35:32;99892.81;;;20.75;57.10
83128;BME280;73148;50.988;11.034;2023-10-08T06:37:59;99896.34;;;20.74;56.89
83128;BME280;73148;50.988;11.034;2023-10-08T06:40:26;99914.78;;;20.74;57.14
83128;BME280;73148;50.988;11.034;2023-10-08T06:43:04;99939.38;;;20.75;57.16
83128;BME280;73148;50.988;11.034;2023-10-08T06:46:02;99947.31;;;20.73;57.27
83128;BME280;73148;50.988;11.034;2023-10-08T06:48:27;99940.41;;;20.69;56.95
83128;BME280;73148;50.988;11.034;2023-10-08T06:50:55;99967.59;;;20.70;57.21
83128;BME280;73148;50.988;11.034;2023-10-08T06:53:23;99950.44;;;20.57;56.96
83128;BME280;73148;50.988;11.034;2023-10-08T06:55:49;99990.47;;;20.68;56.97
83128;BME280;73148;50.988;11.034;2023-10-08T06:58:21;99993.16;;;20.66;57.07
83128;BME280;73148;50.988;11.034;2023-10-08T07:00:48;100003.75;;;20.65;57.08
83128;BME280;73148;50.988;11.034;2023-10-08T07:03:14;100012.59;;;20.62;57.06
83128;BME280;73148;50.988;11.034;2023-10-08T07:05:40;100031.94;;;20.61;57.01
83128;BME280;73148;50.988;11.034;2023-10-08T07:08:07;100037.25;;;20.60;56.92
83128;BME280;73148;50.988;11.034;2023-10-08T07:10:34;100031.16;;;20.58;56.84
83128;BME280;73148;50.988;11.034;2023-10-08T07:12:59;100034.69;;;20.57;56.95
83128;BME280;73148;50.988;11.034;2023-10-08T07:15:25;100052.31;;;20.55;56.77
83128;BME280;73148;50.988;11.034;2023-10-08T07:17:51;100054.16;;;20.51;56.43
83128;BME280;73148;50.988;11.034;2023-10-08T07:20:17;100057.66;;;20.52;56.50
83128;BME280;73148;50.988;11.034;2023-10-08T07:22:48;100066.47;;;20.51;56.46
83128;BME280;73148;50.988;11.034;2023-10-08T07:25:19;100062.16;;;20.48;56.58
83128;BME280;73148;50.988;11.034;2023-10-08T07:27:50;100061.31;;;20.46;56.65
83128;BME280;73148;50.988;11.034;2023-10-08T07:30:16;100065.75;;;20.46;56.26
83128;BME280;73148;50.988;11.034;2023-10-08T07:32:52;100036.38;;;20.29;56.30
83128;BME280;73148;50.988;11.034;2023-10-08T07:35:17;100064.91;;;20.44;56.45
83128;BME280;73148;50.988;11.034;2023-10-08T07:37:46;100067.56;;;20.42;56.35
83128;BME280;73148;50.988;11.034;2023-10-08T07:40:12;100061.34;;;20.45;55.98
83128;BME280;73148;50.988;11.034;2023-10-08T07:42:38;100070.16;;;20.44;55.95
83128;BME280;73148;50.988;11.034;2023-10-08T07:45:06;100071.94;;;20.43;56.08
83128;BME280;73148;50.988;11.034;2023-10-08T07:47:31;100072.88;;;20.41;55.79
83128;BME280;73148;50.988;11.034;2023-10-08T07:49:57;100092.19;;;20.41;55.83
83128;BME280;73148;50.988;11.034;2023-10-08T07:52:23;100093.94;;;20.41;55.52
83128;BME280;73148;50.988;11.034;2023-10-08T07:54:49;100089.59;;;20.40;54.96
83128;BME280;73148;50.988;11.034;2023-10-08T07:57:14;100097.56;;;20.37;55.09
83128;BME280;73148;50.988;11.034;2023-10-08T07:59:45;100109.88;;;20.36;55.20
83128;BME280;73148;50.988;11.034;2023-10-08T08:02:21;100109.03;;;20.34;55.12
83128;BME280;73148;50.988;11.034;2023-10-08T08:04:51;100116.94;;;20.34;54.69
83128;BME280;73148;50.988;11.034;2023-10-08T08:07:18;100129.28;;;20.32;54.66
83128;BME280;73148;50.988;11.034;2023-10-08T08:09:49;100143.34;;;20.31;54.35
83128;BME280;73148;50.988;11.034;2023-10-08T08:12:17;100120.25;;;20.09;53.88
83128;BME280;73148;50.988;11.034;2023-10-08T08:14:44;100156.63;;;20.27;54.24
83128;BME280;73148;50.988;11.034;2023-10-08T08:17:09;100171.63;;;20.23;54.08
83128;BME280;73148;50.988;11.034;2023-10-08T08:19:44;100187.41;;;20.23;53.74
83128;BME280;73148;50.988;11.034;2023-10-08T08:22:13;100185.72;;;20.21;53.05
83128;BME280;73148;50.988;11.034;2023-10-08T08:24:46;100190.19;;;20.17;53.11
83128;BME280;73148;50.988;11.034;2023-10-08T08:27:12;100207.78;;;20.15;52.85
83128;BME280;73148;50.988;11.034;2023-10-08T08:29:49;100206.09;;;20.13;52.64
83128;BME280;73148;50.988;11.034;2023-10-08T08:32:14;100201.72;;;20.12;52.21
83128;BME280;73148;50.988;11.034;2023-10-08T08:34:47;100207.03;;;20.10;52.01
83128;BME280;73148;50.988;11.034;2023-10-08T08:37:15;100200.97;;;20.05;52.35
83128;BME280;73148;50.988;11.034;2023-10-08T08:39:41;100206.22;;;20.05;52.33
83128;BME280;73148;50.988;11.034;2023-10-08T08:42:07;100199.31;;;20.01;52.18
83128;BME280;73148;50.988;11.034;2023-10-08T08:44:35;100208.09;;;20.02;51.38
83128;BME280;73148;50.988;11.034;2023-10-08T08:47:05;100212.44;;;20.03;52.36
83128;BME280;73148;50.988;11.034;2023-10-08T08:49:32;100227.38;;;20.02;52.34
83128;BME280;73148;50.988;11.034;2023-10-08T08:52:04;100226.50;;;20.02;52.40
83128;BME280;73148;50.988;11.034;2023-10-08T08:54:29;100230.88;;;20.01;52.63
83128;BME280;73148;50.988;11.034;2023-10-08T08:56:56;100201.63;;;19.78;53.30
83128;BME280;73148;50.988;11.034;2023-10-08T08:59:21;100231.00;;;19.97;52.84
83128;BME280;73148;50.988;11.034;2023-10-08T09:01:47;100224.84;;;19.98;53.58
83128;BME280;73148;50.988;11.034;2023-10-08T09:04:16;100215.22;;;19.97;53.45
83128;BME280;73148;50.988;11.034;2023-10-08T09:06:42;100210.81;;;19.97;53.81
83128;BME280;73148;50.988;11.034;2023-10-08T09:09:11;100219.59;;;19.96;54.50
83128;BME280;73148;50.988;11.034;2023-10-08T09:11:50;100204.09;;;19.84;54.02
83128;BME280;73148;50.988;11.034;2023-10-08T09:14:20;100224.06;;;19.94;54.54
83128;BME280;73148;50.988;11.034;2023-10-08T09:16:46;100223.16;;;19.95;54.38
83128;BME280;73148;50.988;11.034;2023-10-08T09:19:12;100219.63;;;19.95;54.41
83128;BME280;73148;50.988;11.034;2023-10-08T09:21:43;100220.50;;;19.95;54.63
83128;BME280;73148;50.988;11.034;2023-10-08T09:24:10;100224.03;;;19.96;54.75
83128;BME280;73148;50.988;11.034;2023-10-08T09:26:36;100217.88;;;19.95;54.52
83128;BME280;73148;50.988;11.034;2023-10-08T09:29:04;100214.34;;;19.96;54.18
83128;BME280;73148;50.988;11.034;2023-10-08T09:31:30;100215.22;;;19.97;54.31
83128;BME280;73148;50.988;11.034;2023-10-08T09:34:00;100202.91;;;19.97;54.11
83128;BME280;73148;50.988;11.034;2023-10-08T09:36:29;100209.06;;;19.98;54.20
83128;BME280;73148;50.988;11.034;2023-10-08T09:38:58;100219.53;;;19.99;53.89
83128;BME280;73148;50.988;11.034;2023-10-08T09:41:26;100216.03;;;19.99;54.02
83128;BME280;73148;50.988;11.034;2023-10-08T09:43:53;100229.22;;;19.97;53.29
83128;BME280;73148;50.988;11.034;2023-10-08T09:46:19;100226.69;;;19.94;52.94
83128;BME280;73148;50.988;11.034;2023-10-08T09:48:49;100232.88;;;19.92;52.67
83128;BME280;73148;50.988;11.034;2023-10-08T09:51:14;100226.06;;;19.83;53.14
83128;BME280;73148;50.988;11.034;2023-10-08T09:53:51;100238.22;;;19.89;52.91
83128;BME280;73148;50.988;11.034;2023-10-08T09:56:19;100261.88;;;19.89;53.00
83128;BME280;73148;50.988;11.034;2023-10-08T09:58:46;100254.00;;;19.89;53.26
83128;BME280;73148;50.988;11.034;2023-10-08T10:01:17;100254.84;;;19.89;53.58
83128;BME280;73148;50.988;11.034;2023-10-08T10:03:44;100254.81;;;19.91;53.21
83128;BME280;73148;50.988;11.034;2023-10-08T10:06:13;100253.97;;;19.90;52.91
83128;BME280;73148;50.988;11.034;2023-10-08T10:08:44;100253.94;;;19.92;53.07
83128;BME280;73148;50.988;11.034;2023-10-08T10:11:10;100253.88;;;19.93;53.08
83128;BME280;73148;50.988;11.034;2023-10-08T10:13:39;100248.56;;;19.95;53.34
83128;BME280;73148;50.988;11.034;2023-10-08T10:16:07;100245.97;;;19.93;53.26
83128;BME280;73148;50.988;11.034;2023-10-08T10:18:33;100218.44;;;19.71;53.34
83128;BME280;73148;50.988;11.034;2023-10-08T10:20:59;100260.84;;;19.96;53.69
83128;BME280;73148;50.988;11.034;2023-10-08T10:23:35;100265.19;;;19.97;53.76
83128;BME280;73148;50.988;11.034;2023-10-08T10:26:02;100262.56;;;19.97;53.15
83128;BME280;73148;50.988;11.034;2023-10-08T10:28:28;100260.78;;;19.97;53.29
83128;BME280;73148;50.988;11.034;2023-10-08T10:30:55;100259.91;;;19.98;53.02
83128;BME280;73148;50.988;11.034;2023-10-08T10:33:29;100259.84;;;20.00;52.75
83128;BME280;73148;50.988;11.034;2023-10-08T10:35:55;100272.97;;;20.01;52.74
83128;BME280;73148;50.988;11.034;2023-10-08T10:38:20;100260.88;;;19.94;52.46
83128;BME280;73148;50.988;11.034;2023-10-08T10:40:51;100273.78;;;20.05;52.48
83128;BME280;73148;50.988;11.034;2023-10-08T10:43:23;100278.97;;;20.09;52.54
83128;BME280;73148;50.988;11.034;2023-10-08T10:45:55;100283.25;;;20.13;52.34
83128;BME280;73148;50.988;11.034;2023-10-08T10:48:20;100278.81;;;20.17;52.35
83128;BME280;73148;50.988;11.034;2023-10-08T10:50:49;100283.13;;;20.19;52.50
83128;BME280;73148;50.988;11.034;2023-10-08T10:53:31;100252.72;;;20.06;52.59
83128;BME280;73148;50.988;11.034;2023-10-08T10:55:58;100240.44;;;20.05;52.88
83128;BME280;73148;50.988;11.034;2023-10-08T10:58:46;100267.47;;;20.13;52.63
83128;BME280;73148;50.988;11.034;2023-10-08T11:01:12;100288.19;;;20.27;53.08
83128;BME280;73148;50.988;11.034;2023-10-08T11:03:50;100277.66;;;20.28;52.81
83128;BME280;73148;50.988;11.034;2023-10-08T11:06:18;100237.69;;;20.13;52.82
83128;BME280;73148;50.988;11.034;2023-10-08T11:08:49;100248.56;;;20.33;52.67
83128;BME280;73148;50.988;11.034;2023-10-08T11:11:16;100252.00;;;20.36;52.48
83128;BME280;73148;50.988;11.034;2023-10-08T11:13:43;100240.53;;;20.39;52.41
83128;BME280;73148;50.988;11.034;2023-10-08T11:16:12;100237.06;;;20.37;52.72
83128;BME280;73148;50.988;11.034;2023-10-08T11:18:44;100242.16;;;20.44;52.54
83128;BME280;73148;50.988;11.034;2023-10-08T11:21:12;100235.94;;;20.47;52.75
83128;BME280;73148;50.988;11.034;2023-10-08T11:23:51;100232.34;;;20.51;52.97
83128;BME280;73148;50.988;11.034;2023-10-08T11:26:35;100238.41;;;20.53;52.84
83128;BME280;73148;50.988;11.034;2023-10-08T11:29:06;100242.72;;;20.55;53.04
83128;BME280;73148;50.988;11.034;2023-10-08T11:31:39;100265.56;;;20.56;52.80
83128;BME280;73148;50.988;11.034;2023-10-08T11:34:05;100257.66;;;20.56;53.18
83128;BME280;73148;50.988;11.034;2023-10-08T11:36:35;100268.09;;;20.59;53.08
83128;BME280;73148;50.988;11.034;2023-10-08T11:39:11;100245.59;;;20.46;52.93
83128;BME280;73148;50.988;11.034;2023-10-08T11:41:38;100247.00;;;20.59;53.17
83128;BME280;73148;50.988;11.034;2023-10-08T11:44:16;100254.88;;;20.61;53.08
83128;BME280;73148;50.988;11.034;2023-10-08T11:46:45;100251.41;;;20.60;53.31
83128;BME280;73148;50.988;11.034;2023-10-08T11:49:10;100262.69;;;20.65;53.20
83128;BME280;73148;50.988;11.034;2023-10-08T11:51:43;100263.53;;;20.66;53.18
83128;BME280;73148;50.988;11.034;2023-10-08T11:54:10;100262.69;;;20.65;53.13
83128;BME280;73148;50.988;11.034;2023-10-08T11:56:37;100276.66;;;20.67;53.29
83128;BME280;73148;50.988;11.034;2023-10-08T11:59:03;100276.63;;;20.69;53.11
83128;BME280;73148;50.988;11.034;2023-10-08T12:01:34;100266.09;;;20.69;53.10
83128;BME280;73148;50.988;11.034;2023-10-08T12:04:00;100243.16;;;20.72;53.06
83128;BME280;73148;50.988;11.034;2023-10-08T12:06:26;100231.75;;;20.73;52.99
83128;BME280;73148;50.988;11.034;2023-10-08T12:08:54;100219.38;;;20.75;53.02
83128;BME280;73148;50.988;11.034;2023-10-08T12:11:25;100204.47;;;20.76;52.83
83128;BME280;73148;50.988;11.034;2023-10-08T12:13:56;100219.34;;;20.77;53.19
83128;BME280;73148;50.988;11.034;2023-10-08T12:16:24;100231.59;;;20.78;52.91
83128;BME280;73148;50.988;11.034;2023-10-08T12:18:51;100233.44;;;20.76;53.09
83128;BME280;73148;50.988;11.034;2023-10-08T12:21:23;100245.63;;;20.80;52.83
83128;BME280;73148;50.988;11.034;2023-10-08T12:23:49;100234.19;;;20.79;53.04
83128;BME280;73148;50.988;11.034;2023-10-08T12:26:16;100229.81;;;20.80;53.03
83128;BME280;73148;50.988;11.034;2023-10-08T12:28:45;100226.28;;;20.79;53.28
83128;BME280;73148;50.988;11.034;2023-10-08T12:31:13;100233.38;;;20.77;53.19
83128;BME280;73148;50.988;11.034;2023-10-08T12:33:41;100229.06;;;20.75;53.43
83128;BME280;73148;50.988;11.034;2023-10-08T12:36:08;100235.22;;;20.74;53.26
83128;BME280;73148;50.988;11.034;2023-10-08T12:38:38;100235.19;;;20.75;53.09
83128;BME280;73148;50.988;11.034;2023-10-08T12:41:03;100222.06;;;20.74;52.64
83128;BME280;73148;50.988;11.034;2023-10-08T12:43:39;100208.03;;;20.73;53.09
83128;BME280;73148;50.988;11.034;2023-10-08T12:46:09;100197.53;;;20.72;52.97
83128;BME280;73148;50.988;11.034;2023-10-08T12:48:43;100196.66;;;20.71;52.81
83128;BME280;73148;50.988;11.034;2023-10-08T12:51:09;100201.13;;;20.69;52.72
83128;BME280;73148;50.988;11.034;2023-10-08T12:53:36;100214.28;;;20.69;52.84
83128;BME280;73148;50.988;11.034;2023-10-08T12:56:02;100216.97;;;20.68;52.55
83128;BME280;73148;50.988;11.034;2023-10-08T12:58:32;100224.84;;;20.68;53.01